createdAt,value
2017-06-08T00:01:42.917Z,49.40
2017-06-08T00:04:08.960Z,49.10
2017-06-08T00:06:35.026Z,49.00
2017-06-08T00:09:01.075Z,49.30
2017-06-08T00:11:27.122Z,50.30
2017-06-08T00:13:53.174Z,49.90
2017-06-08T00:16:20.180Z,49.90
2017-06-08T00:19:17.913Z,49.80
2017-06-08T00:21:43.982Z,49.40
2017-06-08T00:24:10.021Z,48.90
2017-06-08T00:26:36.070Z,49.20
2017-06-08T00:29:02.123Z,50.20
2017-06-08T00:31:28.166Z,49.40
2017-06-08T00:33:54.215Z,49.60
2017-06-08T00:36:21.028Z,49.20
2017-06-08T00:38:47.070Z,49.30
2017-06-08T00:41:13.111Z,49.20
2017-06-08T00:43:39.162Z,49.70
2017-06-08T00:46:05.954Z,50.10
2017-06-08T00:48:32.003Z,50.10
2017-06-08T00:50:58.054Z,49.30
2017-06-08T00:53:24.105Z,49.70
2017-06-08T00:55:50.165Z,49.60
2017-06-08T00:58:31.326Z,49.10
2017-06-08T01:00:57.366Z,49.20
2017-06-08T01:03:23.410Z,49.00
2017-06-08T01:05:49.458Z,49.00
2017-06-08T01:08:15.507Z,50.40
2017-06-08T01:10:56.583Z,50.00
2017-06-08T01:13:22.634Z,50.20
2017-06-08T01:15:48.679Z,50.40
2017-06-08T01:31:13.542Z,49.80
2017-06-08T01:33:39.591Z,50.00
2017-06-08T01:36:05.651Z,49.70
2017-06-08T01:38:32.659Z,50.20
2017-06-08T01:40:58.696Z,50.10
2017-06-08T01:43:24.742Z,50.30
2017-06-08T01:45:50.799Z,50.60
2017-06-08T01:48:17.579Z,50.10
2017-06-08T01:50:43.627Z,50.00
2017-06-08T01:53:09.665Z,50.00
2017-06-08T01:55:35.719Z,50.60
2017-06-08T01:58:02.499Z,49.80
2017-06-08T02:00:29.349Z,50.20
2017-06-08T02:02:55.387Z,50.20
2017-06-08T02:05:21.437Z,49.80
2017-06-08T02:07:47.567Z,50.20
2017-06-08T02:10:13.638Z,50.40
2017-06-08T02:12:39.689Z,50.40
2017-06-08T02:15:05.727Z,50.00
2017-06-08T02:17:31.767Z,50.00
2017-06-08T02:19:57.799Z,50.00
2017-06-08T02:22:24.795Z,50.00
2017-06-08T02:24:50.833Z,49.90
2017-06-08T02:27:16.873Z,50.00
2017-06-08T02:29:42.911Z,50.10
2017-06-08T02:32:08.959Z,50.00
2017-06-08T02:34:34.991Z,50.50
2017-06-08T02:37:01.019Z,50.10
2017-06-08T02:39:27.049Z,50.00
2017-06-08T02:41:53.082Z,50.50
2017-06-08T02:44:19.195Z,50.30
2017-06-08T02:46:45.223Z,51.10
2017-06-08T02:49:11.250Z,50.30
2017-06-08T02:51:37.395Z,49.80
2017-06-08T02:54:03.418Z,50.40
2017-06-08T02:56:29.461Z,50.20
2017-06-08T02:58:55.501Z,50.20
2017-06-08T03:01:21.539Z,50.60
2017-06-08T03:03:47.562Z,50.10
2017-06-08T03:06:13.726Z,50.10
2017-06-08T03:08:39.754Z,50.00
2017-06-08T03:11:05.782Z,50.10
2017-06-08T03:13:31.813Z,50.80
2017-06-08T03:15:57.852Z,52.60
2017-06-08T03:18:23.886Z,49.70
2017-06-08T03:20:49.936Z,52.00
2017-06-08T03:23:15.958Z,49.50
2017-06-08T03:25:41.994Z,49.90
2017-06-08T03:28:08.267Z,50.00
2017-06-08T03:30:34.299Z,50.10
2017-06-08T03:33:00.334Z,50.20
2017-06-08T03:35:26.376Z,51.70
2017-06-08T03:37:52.406Z,49.70
2017-06-08T03:40:18.439Z,49.60
2017-06-08T03:42:44.462Z,50.00
2017-06-08T03:45:10.490Z,50.00
2017-06-08T03:47:36.535Z,50.40
2017-06-08T03:50:03.552Z,50.80
2017-06-08T03:52:29.604Z,50.70
2017-06-08T03:54:55.646Z,50.80
2017-06-08T03:57:21.670Z,51.00
2017-06-08T03:59:48.442Z,50.20
2017-06-08T04:02:14.594Z,50.60
2017-06-08T04:04:40.623Z,52.70
2017-06-08T04:07:06.650Z,50.20
2017-06-08T04:09:32.690Z,50.30
2017-06-08T04:11:59.602Z,50.60
2017-06-08T04:14:25.637Z,50.40
2017-06-08T04:16:51.683Z,50.60
2017-06-08T04:19:17.722Z,50.80
2017-06-08T04:21:43.759Z,50.60
2017-06-08T04:24:09.806Z,51.00
2017-06-08T04:26:35.851Z,50.40
2017-06-08T04:29:01.911Z,50.60
2017-06-08T04:31:27.957Z,50.20
2017-06-08T04:33:54.057Z,50.60
2017-06-08T04:36:20.095Z,50.80
2017-06-08T04:38:46.129Z,50.60
2017-06-08T04:41:12.171Z,50.50
2017-06-08T04:43:38.218Z,51.20
2017-06-08T04:46:04.255Z,50.70
2017-06-08T04:48:30.363Z,51.10
2017-06-08T04:50:57.144Z,50.60
2017-06-08T04:53:23.195Z,50.60
2017-06-08T04:55:49.490Z,50.50
2017-06-08T04:58:15.526Z,50.80
2017-06-08T05:00:41.566Z,50.90
2017-06-08T05:03:38.845Z,51.10
2017-06-08T05:06:04.929Z,52.80
2017-06-08T05:08:30.974Z,50.60
2017-06-08T05:10:57.021Z,51.10
2017-06-08T05:13:23.082Z,51.70
2017-06-08T05:15:49.439Z,49.70
2017-06-08T05:18:15.495Z,50.80
2017-06-08T05:20:41.570Z,50.60
2017-06-08T05:23:07.621Z,50.80
2017-06-08T05:25:33.658Z,50.90
2017-06-08T05:27:59.701Z,50.50
2017-06-08T05:30:25.737Z,50.50
2017-06-08T05:32:51.778Z,51.10
2017-06-08T05:35:17.814Z,49.30
2017-06-08T05:37:44.733Z,49.10
2017-06-08T05:40:10.798Z,49.10
2017-06-08T05:42:51.823Z,48.80
2017-06-08T05:45:17.889Z,50.40
2017-06-08T05:47:44.670Z,49.40
2017-06-08T05:50:10.714Z,49.30
2017-06-08T05:52:36.797Z,49.20
2017-06-08T05:55:02.838Z,48.40
2017-06-08T05:57:28.874Z,49.60
2017-06-08T05:59:55.091Z,49.70
2017-06-08T06:02:21.126Z,48.20
2017-06-08T06:04:47.165Z,48.70
2017-06-08T06:07:13.208Z,48.00
2017-06-08T06:09:39.259Z,48.60
2017-06-08T06:12:06.062Z,49.80
2017-06-08T06:14:32.109Z,49.80
2017-06-08T06:16:58.148Z,48.20
2017-06-08T06:19:24.212Z,49.20
2017-06-08T06:21:51.275Z,48.60
2017-06-08T06:24:17.310Z,48.50
2017-06-08T06:26:43.358Z,48.00
2017-06-08T06:29:09.395Z,47.70
2017-06-08T06:31:35.426Z,48.60
2017-06-08T06:34:01.481Z,49.40
2017-06-08T06:36:27.564Z,48.70
2017-06-08T06:38:53.670Z,48.60
2017-06-08T06:41:19.755Z,48.30
2017-06-08T06:43:46.014Z,48.40
2017-06-08T06:46:12.058Z,48.30
2017-06-08T06:48:38.099Z,47.70
2017-06-08T06:51:04.139Z,48.10
2017-06-08T06:53:30.185Z,48.10
2017-06-08T06:55:56.228Z,48.90
2017-06-08T06:58:22.276Z,47.20
2017-06-08T07:01:03.282Z,47.70
2017-06-08T07:03:29.335Z,47.90
2017-06-08T07:05:55.587Z,47.70
2017-06-08T07:08:21.622Z,48.60
2017-06-08T07:10:47.665Z,47.80
2017-06-08T07:13:13.741Z,48.10
2017-06-08T07:15:39.855Z,47.00
2017-06-08T07:18:05.915Z,47.80
2017-06-08T07:20:31.975Z,47.80
2017-06-08T07:22:58.011Z,47.60
2017-06-08T07:25:24.075Z,46.70
2017-06-08T07:27:51.155Z,50.10
2017-06-08T07:30:17.194Z,49.40
2017-06-08T07:32:43.225Z,49.20
2017-06-08T07:35:09.298Z,48.20
2017-06-08T07:37:36.098Z,49.00
2017-06-08T07:40:02.141Z,48.90
2017-06-08T07:42:28.170Z,47.00
2017-06-08T07:44:54.206Z,47.30
2017-06-08T07:47:21.007Z,47.30
2017-06-08T07:49:47.841Z,47.40
2017-06-08T07:52:13.886Z,47.40
2017-06-08T07:54:40.031Z,48.80
2017-06-08T07:57:06.063Z,48.20
2017-06-08T07:59:32.094Z,48.30
2017-06-08T08:02:20.217Z,47.80
2017-06-08T08:04:46.270Z,47.90
2017-06-08T08:07:12.296Z,47.20
2017-06-08T08:09:38.346Z,47.00
2017-06-08T08:12:04.671Z,44.10
2017-06-08T08:14:30.699Z,46.40
2017-06-08T08:16:56.762Z,44.80
2017-06-08T08:19:22.798Z,43.70
2017-06-08T08:21:48.830Z,44.00
2017-06-08T08:24:14.865Z,45.50
2017-06-08T08:26:40.930Z,45.40
2017-06-08T08:29:06.989Z,45.40
2017-06-08T08:31:33.089Z,45.60
2017-06-08T08:34:00.034Z,45.30
2017-06-08T08:36:26.153Z,45.30
2017-06-08T08:38:52.238Z,45.60
2017-06-08T08:41:18.428Z,44.40
2017-06-08T08:43:44.538Z,44.70
2017-06-08T08:46:10.697Z,44.40
2017-06-08T08:48:36.817Z,44.80
2017-06-08T08:51:02.890Z,40.70
2017-06-08T08:53:28.926Z,40.40
2017-06-08T08:55:55.733Z,41.90
2017-06-08T08:58:21.771Z,41.80
2017-06-08T09:00:47.810Z,42.30
2017-06-08T09:03:13.852Z,40.80
2017-06-08T09:05:40.630Z,40.60
2017-06-08T09:08:06.681Z,40.50
2017-06-08T09:10:32.736Z,40.90
2017-06-08T09:13:29.873Z,41.50
2017-06-08T09:15:56.158Z,41.10
2017-06-08T09:18:22.209Z,40.80
2017-06-08T09:20:48.254Z,41.40
2017-06-08T09:23:14.319Z,41.90
2017-06-08T09:25:40.346Z,40.80
2017-06-08T09:28:07.210Z,41.10
2017-06-08T09:30:33.242Z,41.10
2017-06-08T09:32:59.282Z,40.50
2017-06-08T09:35:25.313Z,41.10
2017-06-08T09:37:52.347Z,39.10
2017-06-08T09:40:18.389Z,39.10
2017-06-08T09:42:44.417Z,39.70
2017-06-08T09:45:10.478Z,37.80
2017-06-08T09:47:37.278Z,38.30
2017-06-08T09:50:03.327Z,38.30
2017-06-08T09:52:29.431Z,39.90
2017-06-08T09:54:55.506Z,40.40
2017-06-08T09:57:21.543Z,38.60
2017-06-08T09:59:48.455Z,40.50
2017-06-08T10:02:15.164Z,40.50
2017-06-08T10:04:41.194Z,40.20
2017-06-08T10:07:07.231Z,38.30
2017-06-08T10:09:33.278Z,39.30
2017-06-08T10:11:59.318Z,39.20
2017-06-08T10:14:26.097Z,39.30
2017-06-08T10:16:52.123Z,39.20
2017-06-08T10:19:18.166Z,38.20
2017-06-08T10:21:44.369Z,39.00
2017-06-08T10:24:10.430Z,39.60
2017-06-08T10:26:36.486Z,40.00
2017-06-08T10:29:02.555Z,39.80
2017-06-08T10:31:28.617Z,39.30
2017-06-08T10:33:54.662Z,39.20
2017-06-08T10:36:20.734Z,39.80
2017-06-08T10:38:46.778Z,40.20
2017-06-08T10:41:12.818Z,40.30
2017-06-08T10:43:39.267Z,38.60
2017-06-08T10:46:05.346Z,38.00
2017-06-08T10:48:32.872Z,38.70
2017-06-08T10:50:58.932Z,39.10
2017-06-08T10:53:24.975Z,40.30
2017-06-08T10:55:51.036Z,38.00
2017-06-08T10:58:17.212Z,39.00
2017-06-08T11:00:43.247Z,39.40
2017-06-08T11:03:09.297Z,38.00
2017-06-08T11:05:35.613Z,37.60
2017-06-08T11:08:01.655Z,38.10
2017-06-08T11:10:27.734Z,38.60
2017-06-08T11:12:53.793Z,38.60
2017-06-08T11:15:19.834Z,38.80
2017-06-08T11:17:45.919Z,38.00
2017-06-08T11:20:11.946Z,38.20
2017-06-08T11:22:37.966Z,38.40
2017-06-08T11:25:03.998Z,38.80
2017-06-08T11:27:30.853Z,38.80
2017-06-08T11:29:56.889Z,38.80
2017-06-08T11:32:22.926Z,39.00
2017-06-08T11:34:48.954Z,37.40
2017-06-08T11:37:15.018Z,38.20
2017-06-08T11:39:41.057Z,40.10
2017-06-08T11:42:07.123Z,38.20
2017-06-08T11:44:33.162Z,37.30
2017-06-08T11:46:59.206Z,38.00
2017-06-08T11:49:25.272Z,37.40
2017-06-08T11:51:51.303Z,37.40
2017-06-08T11:54:17.339Z,37.00
2017-06-08T11:57:14.741Z,38.20
2017-06-08T11:59:40.803Z,37.40
2017-06-08T12:02:06.864Z,37.60
2017-06-08T12:04:32.939Z,38.00
2017-06-08T12:06:59.012Z,36.40
2017-06-08T12:09:25.269Z,36.90
2017-06-08T12:11:51.353Z,36.80
2017-06-08T12:14:17.407Z,36.80
2017-06-08T12:16:43.447Z,37.10
2017-06-08T12:19:09.505Z,38.40
2017-06-08T12:21:35.613Z,38.40
2017-06-08T12:24:07.817Z,36.40
2017-06-08T12:26:33.892Z,38.80
2017-06-08T12:28:59.950Z,38.70
2017-06-08T12:31:26.217Z,38.00
2017-06-08T12:33:52.270Z,38.60
2017-06-08T12:36:18.341Z,38.10
2017-06-08T12:38:44.390Z,38.30
2017-06-08T12:41:10.433Z,38.40
2017-06-08T12:43:36.466Z,37.80
2017-06-08T12:46:02.519Z,37.00
2017-06-08T12:48:29.306Z,36.50
2017-06-08T12:50:55.345Z,36.50
2017-06-08T12:53:21.658Z,35.60
2017-06-08T12:55:47.695Z,35.80
2017-06-08T12:58:13.727Z,36.70
2017-06-08T13:00:39.781Z,36.20
2017-06-08T13:03:05.831Z,36.30
2017-06-08T13:05:32.611Z,36.30
2017-06-08T13:07:58.650Z,36.30
2017-06-08T13:10:24.699Z,36.20
2017-06-08T13:12:50.721Z,35.70
2017-06-08T13:15:16.823Z,35.70
2017-06-08T13:17:42.875Z,35.80
2017-06-08T13:20:08.919Z,35.70
2017-06-08T13:22:34.946Z,35.30
2017-06-08T13:25:00.997Z,35.40
2017-06-08T13:27:27.857Z,35.30
2017-06-08T13:29:53.909Z,35.20
2017-06-08T13:32:19.947Z,35.40
2017-06-08T13:34:45.978Z,35.00
2017-06-08T13:37:12.262Z,34.80
2017-06-08T13:39:38.303Z,34.80
2017-06-08T13:42:04.341Z,35.00
2017-06-08T13:44:30.375Z,35.40
2017-06-08T13:46:56.408Z,35.70
2017-06-08T13:49:22.446Z,34.70
2017-06-08T13:51:48.489Z,35.60
2017-06-08T13:54:14.526Z,35.60
2017-06-08T13:56:40.559Z,35.70
2017-06-08T13:59:06.778Z,35.80
2017-06-08T14:01:32.811Z,36.00
2017-06-08T14:04:13.824Z,35.80
2017-06-08T14:06:39.854Z,35.50
2017-06-08T14:09:05.886Z,34.10
2017-06-08T14:11:31.955Z,34.90
2017-06-08T14:13:59.066Z,35.10
2017-06-08T14:16:25.090Z,35.10
2017-06-08T14:18:51.122Z,34.60
2017-06-08T14:21:18.185Z,35.90
2017-06-08T14:23:44.254Z,35.90
2017-06-08T14:26:10.408Z,35.40
2017-06-08T14:28:36.455Z,35.70
2017-06-08T14:31:02.523Z,35.50
2017-06-08T14:33:28.573Z,35.10
2017-06-08T14:35:54.614Z,35.30
2017-06-08T14:38:21.216Z,35.20
2017-06-08T14:40:47.250Z,33.00
2017-06-08T14:43:13.393Z,34.90
2017-06-08T14:45:39.430Z,34.80
2017-06-08T14:48:05.478Z,35.20
2017-06-08T14:50:31.536Z,35.40
2017-06-08T14:52:57.566Z,35.00
2017-06-08T14:55:23.633Z,35.60
2017-06-08T14:57:49.711Z,35.30
2017-06-08T15:00:15.769Z,35.40
2017-06-08T15:02:41.826Z,35.40
2017-06-08T15:05:08.642Z,35.10
2017-06-08T15:07:34.703Z,35.10
2017-06-08T15:10:00.746Z,34.00
2017-06-08T15:12:26.846Z,34.90
2017-06-08T15:14:52.886Z,34.60
2017-06-08T15:17:18.947Z,35.00
2017-06-08T15:19:45.061Z,35.10
2017-06-08T15:22:11.196Z,34.90
2017-06-08T15:24:37.243Z,35.10
2017-06-08T15:27:03.371Z,35.40
2017-06-08T15:29:29.683Z,35.10
2017-06-08T15:31:56.004Z,35.80
2017-06-08T15:34:23.169Z,35.70
2017-06-08T15:36:49.966Z,34.00
2017-06-08T15:39:46.994Z,34.00
2017-06-08T15:42:13.030Z,36.30
2017-06-08T15:44:39.068Z,34.80
2017-06-08T15:47:05.288Z,36.20
2017-06-08T15:49:32.114Z,34.90
2017-06-08T15:51:58.403Z,34.20
2017-06-08T15:54:25.200Z,35.90
2017-06-08T15:56:51.244Z,35.70
2017-06-08T15:59:48.950Z,35.70
2017-06-08T16:02:15.010Z,35.20
2017-06-08T16:04:41.071Z,36.00
2017-06-08T16:07:08.002Z,35.40
2017-06-08T16:09:34.039Z,35.40
2017-06-08T16:12:00.079Z,36.00
2017-06-08T16:14:26.746Z,35.80
2017-06-08T16:16:52.795Z,36.40
2017-06-08T16:19:18.835Z,36.30
2017-06-08T16:21:44.889Z,36.50
2017-06-08T16:24:10.941Z,36.50
2017-06-08T16:26:37.006Z,36.20
2017-06-08T16:29:03.314Z,36.00
2017-06-08T16:31:29.372Z,35.60
2017-06-08T16:33:55.430Z,35.80
2017-06-08T16:36:21.479Z,34.30
2017-06-08T16:38:47.529Z,35.80
2017-06-08T16:41:13.580Z,36.40
2017-06-08T16:43:39.748Z,35.80
2017-06-08T16:46:05.810Z,35.40
2017-06-08T16:48:31.852Z,36.00
2017-06-08T16:50:58.153Z,36.40
2017-06-08T16:53:24.213Z,33.70
2017-06-08T16:55:50.259Z,33.90
2017-06-08T16:58:16.311Z,36.00
2017-06-08T17:00:42.354Z,36.30
2017-06-08T17:03:08.407Z,36.30
2017-06-08T17:05:34.450Z,35.80
2017-06-08T17:08:00.879Z,34.20
2017-06-08T17:10:27.022Z,35.20
2017-06-08T17:12:53.299Z,35.30
2017-06-08T17:15:19.347Z,34.60
2017-06-08T17:17:45.378Z,35.10
2017-06-08T17:20:11.412Z,35.80
2017-06-08T17:22:37.442Z,35.80
2017-06-08T17:25:03.533Z,36.90
2017-06-08T17:27:29.582Z,35.70
2017-06-08T17:29:55.623Z,35.60
2017-06-08T17:32:21.670Z,35.20
2017-06-08T17:34:47.842Z,35.70
2017-06-08T17:37:13.890Z,34.80
2017-06-08T17:39:39.926Z,34.50
2017-06-08T17:42:05.971Z,35.30
2017-06-08T17:44:32.761Z,36.80
2017-06-08T17:46:58.799Z,36.20
2017-06-08T17:49:24.867Z,36.50
2017-06-08T17:51:50.954Z,36.90
2017-06-08T17:54:31.975Z,37.30
2017-06-08T17:56:58.058Z,36.10
2017-06-08T17:59:24.102Z,35.00
2017-06-08T18:01:50.146Z,36.20
2017-06-08T18:04:16.237Z,36.60
2017-06-08T18:06:42.318Z,36.90
2017-06-08T18:09:08.371Z,36.40
2017-06-08T18:11:34.440Z,36.40
2017-06-08T18:14:00.474Z,36.70
2017-06-08T18:16:26.544Z,36.30
2017-06-08T18:18:52.917Z,36.20
2017-06-08T18:21:50.494Z,36.10
2017-06-08T18:24:16.547Z,37.20
2017-06-08T18:26:42.597Z,36.20
2017-06-08T18:29:08.638Z,36.60
2017-06-08T18:31:34.686Z,37.70
2017-06-08T18:34:00.726Z,37.50
2017-06-08T18:36:26.777Z,36.80
2017-06-08T18:38:52.856Z,35.80
2017-06-08T18:41:18.914Z,37.90
2017-06-08T18:43:44.976Z,37.60
2017-06-08T18:46:11.031Z,37.90
2017-06-08T18:48:37.074Z,38.10
2017-06-08T18:51:03.115Z,38.20
2017-06-08T18:53:29.171Z,37.60
2017-06-08T18:55:55.961Z,38.20
2017-06-08T18:58:22.122Z,38.20
2017-06-08T19:01:19.370Z,38.40
2017-06-08T19:03:45.411Z,38.60
2017-06-08T19:06:12.270Z,38.70
2017-06-08T19:08:38.319Z,38.70
2017-06-08T19:11:04.362Z,37.90
2017-06-08T19:13:30.398Z,38.90
2017-06-08T19:15:56.438Z,39.60
2017-06-08T19:18:22.486Z,39.10
2017-06-08T19:20:48.555Z,38.90
2017-06-08T19:23:14.610Z,39.10
2017-06-08T19:25:40.682Z,39.20
2017-06-08T19:28:06.734Z,39.20
2017-06-08T19:30:32.779Z,39.20
2017-06-08T19:32:58.830Z,39.20
2017-06-08T19:35:24.887Z,39.40
2017-06-08T19:37:50.934Z,39.40
2017-06-08T19:40:16.979Z,39.20
2017-06-08T19:42:58.054Z,39.60
2017-06-08T19:45:24.105Z,39.90
2017-06-08T19:47:50.164Z,40.00
2017-06-08T19:50:16.211Z,40.40
2017-06-08T19:52:42.260Z,40.30
2017-06-08T19:55:08.306Z,40.30
2017-06-08T19:57:34.374Z,39.90
2017-06-08T20:00:00.434Z,40.40
2017-06-08T20:02:26.500Z,40.80
2017-06-08T20:04:52.679Z,41.10
2017-06-08T20:07:18.736Z,41.30
2017-06-08T20:09:44.782Z,40.80
2017-06-08T20:12:10.830Z,40.80
2017-06-08T20:14:36.869Z,41.20
2017-06-08T20:17:02.922Z,41.00
2017-06-08T20:19:28.962Z,41.30
2017-06-08T20:21:54.999Z,41.50
2017-06-08T20:24:21.034Z,41.30
2017-06-08T20:26:47.933Z,41.20
2017-06-08T20:29:13.974Z,41.20
2017-06-08T20:31:40.013Z,41.40
2017-06-08T20:34:06.050Z,41.80
2017-06-08T20:36:32.082Z,41.90
2017-06-08T20:38:58.116Z,42.20
2017-06-08T20:41:24.160Z,42.20
2017-06-08T20:43:50.185Z,42.30
2017-06-08T20:46:16.327Z,42.60
2017-06-08T20:48:43.386Z,42.30
2017-06-08T20:51:09.425Z,42.20
2017-06-08T20:53:35.471Z,42.50
2017-06-08T20:56:01.511Z,42.80
2017-06-08T20:58:27.546Z,42.80
2017-06-08T21:00:53.570Z,42.70
2017-06-08T21:03:19.638Z,42.70
2017-06-08T21:05:45.669Z,43.10
2017-06-08T21:08:11.714Z,43.10
2017-06-08T21:10:38.525Z,43.50
2017-06-08T21:13:04.553Z,43.50
2017-06-08T21:15:30.595Z,43.40
2017-06-08T21:17:56.666Z,43.70
2017-06-08T21:20:22.693Z,44.30
2017-06-08T21:22:48.768Z,44.50
2017-06-08T21:25:14.806Z,44.70
2017-06-08T21:27:40.833Z,44.50
2017-06-08T21:30:06.865Z,44.30
2017-06-08T21:32:32.955Z,44.20
2017-06-08T21:34:59.040Z,44.60
2017-06-08T21:37:25.087Z,44.50
2017-06-08T21:39:51.134Z,44.50
2017-06-08T21:42:17.171Z,44.20
2017-06-08T21:44:43.211Z,44.60
2017-06-08T21:47:09.261Z,44.90
2017-06-08T21:49:35.294Z,45.00
2017-06-08T21:52:01.323Z,45.10
2017-06-08T21:54:27.490Z,45.10
2017-06-08T21:56:53.536Z,45.30
2017-06-08T21:59:19.579Z,45.40
2017-06-08T22:01:45.614Z,45.40
2017-06-08T22:04:11.648Z,45.50
2017-06-08T22:06:37.711Z,45.40
2017-06-08T22:09:03.771Z,45.50
2017-06-08T22:11:29.805Z,45.40
2017-06-08T22:13:55.843Z,45.50
2017-06-08T22:16:22.023Z,45.70
2017-06-08T22:19:03.042Z,46.10
2017-06-08T22:21:29.067Z,45.60
2017-06-08T22:23:55.094Z,45.10
2017-06-08T22:26:21.119Z,45.30
2017-06-08T22:28:47.161Z,45.60
2017-06-08T22:31:28.170Z,45.90
2017-06-08T22:33:54.203Z,45.70
2017-06-08T22:36:20.250Z,46.30
2017-06-08T22:38:46.294Z,46.50
2017-06-08T22:41:12.318Z,46.60
2017-06-08T22:43:38.359Z,46.20
2017-06-08T22:46:04.396Z,46.10
2017-06-08T22:48:30.415Z,46.30
2017-06-08T22:50:56.453Z,46.50
2017-06-08T22:53:23.278Z,46.80
2017-06-08T22:55:49.319Z,46.70
2017-06-08T22:58:16.327Z,46.50
2017-06-08T23:00:42.379Z,46.40
2017-06-08T23:03:08.417Z,46.70
2017-06-08T23:05:34.466Z,46.80
2017-06-08T23:08:00.502Z,46.60
2017-06-08T23:10:26.531Z,46.50
2017-06-08T23:12:52.554Z,46.60
2017-06-08T23:15:18.591Z,46.70
2017-06-08T23:17:44.679Z,46.80
2017-06-08T23:20:11.041Z,46.80
2017-06-08T23:22:37.078Z,46.50
2017-06-08T23:25:03.115Z,46.30
2017-06-08T23:27:29.141Z,46.60
2017-06-08T23:29:55.179Z,46.60
2017-06-08T23:32:21.983Z,46.80
2017-06-08T23:34:48.005Z,46.90
2017-06-08T23:37:14.035Z,46.80
2017-06-08T23:39:40.085Z,47.00
2017-06-08T23:42:06.911Z,47.10
2017-06-08T23:44:32.942Z,47.10
2017-06-08T23:46:58.969Z,47.00
2017-06-08T23:49:25.005Z,47.00
2017-06-08T23:51:51.035Z,47.10
2017-06-08T23:54:17.062Z,47.00
2017-06-08T23:56:43.098Z,47.20
2017-06-08T23:59:09.135Z,47.30
